Andale, Kansas
Current Conditions -  °F | °C
As of 10:53 PM on Wednesday 22 Oct 2014 (Local Time) from KICT Reporting Station
Overcast Overcast  
Wind Chill: 19°   Ceiling: 4000
Heat Index: 19°   Visibility: 10mi
Dew Point: 14°   Wind: 10mph
Humidity: 73%   Direction: 210°SSW
Pressure: 30.1"   Gusts: NA
Location:  37.79°N, 97.63°W
Report Text: KICT 230353Z 21009KT 10SM BKN040 BKN060 OVC090 19/14 A3010 RMK AO2 SLP181 SHRA VC ALQDS T01890139
Loading
Personal Weather Stations






























Interactive Weather Map
Tropical Storm Tracking
New forecast layout! Learn more

10-Day Weather Forecast

Advertisements
Track Severe Weather on mobile